Time;durP1;ratioP1;P1;durP2;ratioP2;P2;SDS_P1;SDS_P2;PMS_P1;PMS_P2;Temp;Humidity;BMP_temperature;BMP_pressure;BME280_temperature;BME280_humidity;BME280_pressure;Samples;Min_cycle;Max_cycle;Signal;HPM_P1;HPM_P2
2021/10/07 00:01:46;;;;;;;13.20;5.63;;;;;;;20.36;51.88;102085.56;5037210;28;20367;-61
2021/10/07 00:04:11;;;;;;;14.07;4.90;;;;;;;20.37;51.81;102087.28;5037056;28;20026;-61
2021/10/07 00:06:37;;;;;;;8.55;5.05;;;;;;;20.37;51.07;102079.13;5039417;28;20021;-60
2021/10/07 00:09:04;;;;;;;8.02;5.18;;;;;;;20.38;51.55;102084.38;5047435;28;20025;-61
2021/10/07 00:11:33;;;;;;;13.75;5.13;;;;;;;20.40;51.57;102086.97;5047288;28;20025;-60
2021/10/07 00:14:03;;;;;;;11.85;5.07;;;;;;;20.40;51.54;102095.13;5051569;28;20044;-61
2021/10/07 00:16:29;;;;;;;15.07;5.38;;;;;;;20.42;51.39;102093.09;5017447;28;20028;-61
2021/10/07 00:18:55;;;;;;;13.77;5.05;;;;;;;20.41;51.40;102094.97;5026471;28;20025;-61
2021/10/07 00:21:20;;;;;;;13.60;5.00;;;;;;;20.42;51.29;102093.09;5062450;28;20031;-61
2021/10/07 00:24:07;;;;;;;8.75;5.65;;;;;;;20.42;51.83;102099.41;5045250;28;20397;-61
2021/10/07 00:26:38;;;;;;;10.85;5.15;;;;;;;20.42;51.14;102098.53;5056041;28;20025;-61
2021/10/07 00:31:54;;;;;;;13.38;5.72;;;;;;;20.41;51.69;102099.56;5014780;28;20037;-61
2021/10/07 00:39:55;;;;;;;11.45;5.65;;;;;;;20.44;51.64;102112.84;5040951;28;20063;-61
2021/10/07 00:42:21;;;;;;;12.88;5.72;;;;;;;20.44;51.88;102112.84;5056191;28;20084;-61
2021/10/07 00:44:47;;;;;;;11.80;4.95;;;;;;;20.42;51.03;102110.28;5038579;28;20025;-61
2021/10/07 00:47:14;;;;;;;14.25;5.32;;;;;;;20.45;51.64;102109.09;5035509;28;20406;-61
2021/10/07 00:49:39;;;;;;;12.63;5.05;;;;;;;20.45;51.39;102114.56;5055590;28;20024;-61
2021/10/07 00:52:13;;;;;;;13.07;5.90;;;;;;;20.43;51.38;102112.00;5056696;28;20051;-61
2021/10/07 00:54:39;;;;;;;15.10;5.80;;;;;;;20.44;51.22;102112.84;5039184;28;20100;-61
2021/10/07 00:57:06;;;;;;;10.02;5.78;;;;;;;20.46;51.42;102113.53;5038918;28;20047;-61
2021/10/07 00:59:35;;;;;;;10.88;5.75;;;;;;;20.44;51.83;102104.66;5056482;28;20032;-61
2021/10/07 01:02:07;;;;;;;15.93;6.15;;;;;;;20.48;51.56;102116.94;5055981;28;20035;-61
2021/10/07 01:04:32;;;;;;;11.23;5.43;;;;;;;20.48;51.92;102117.81;5038271;28;20021;-61
2021/10/07 01:06:59;;;;;;;11.75;6.05;;;;;;;20.47;51.80;102107.94;5038599;28;20462;-61
2021/10/07 01:09:25;;;;;;;11.30;6.00;;;;;;;20.50;51.42;102114.91;5055423;28;20079;-61
2021/10/07 01:11:50;;;;;;;13.50;6.22;;;;;;;20.42;50.82;102098.53;5055901;28;20075;-61
2021/10/07 01:14:58;;;;;;;16.75;5.60;;;;;;;20.41;51.39;102096.84;5055665;28;20029;-61
2021/10/07 01:17:28;;;;;;;13.48;5.75;;;;;;;20.51;51.87;102108.47;4974633;28;20031;-61
2021/10/07 01:19:57;;;;;;;15.38;5.75;;;;;;;20.50;51.81;102109.47;4974515;28;20121;-61
2021/10/07 01:22:24;;;;;;;12.57;6.65;;;;;;;20.50;51.76;102104.03;4974049;28;20058;-61
2021/10/07 01:24:50;;;;;;;15.57;5.38;;;;;;;20.51;51.31;102108.47;4974998;28;20043;-61
2021/10/07 01:27:16;;;;;;;12.10;5.80;;;;;;;20.49;52.38;102105.06;4958903;28;20099;-61
2021/10/07 01:29:42;;;;;;;26.48;7.65;;;;;;;20.48;51.71;102115.09;4975201;28;20480;-61
2021/10/07 01:32:09;;;;;;;11.63;6.20;;;;;;;20.48;51.89;102117.81;4974860;28;20035;-61
2021/10/07 01:34:35;;;;;;;12.18;4.70;;;;;;;20.51;52.47;102124.81;4958370;28;20038;-61
2021/10/07 01:37:02;;;;;;;10.23;6.15;;;;;;;20.50;51.20;102121.22;4974810;28;20038;-60
2021/10/07 01:39:28;;;;;;;13.40;6.25;;;;;;;20.48;51.75;102116.94;4975104;28;20130;-61
2021/10/07 01:41:53;;;;;;;14.50;6.10;;;;;;;20.49;52.45;102118.66;4974790;28;20030;-61
2021/10/07 01:44:23;;;;;;;13.90;6.25;;;;;;;20.49;52.10;102118.66;4974392;28;20045;-61
2021/10/07 01:46:49;;;;;;;12.43;6.35;;;;;;;20.47;51.87;102123.41;4974283;28;20065;-61
2021/10/07 01:49:15;;;;;;;14.73;5.85;;;;;;;20.48;52.17;102136.00;4974900;28;20043;-61
2021/10/07 01:51:40;;;;;;;10.63;5.80;;;;;;;20.50;52.01;102133.97;4998955;28;20143;-61
2021/10/07 01:54:06;;;;;;;17.50;6.57;;;;;;;20.47;51.96;102123.41;5017821;28;20482;-61
2021/10/07 01:56:32;;;;;;;14.73;6.35;;;;;;;20.52;51.91;102131.97;5035461;28;20025;-61
2021/10/07 01:58:58;;;;;;;14.77;7.05;;;;;;;20.53;51.98;102144.53;5035681;28;20052;-61
2021/10/07 02:01:24;;;;;;;12.30;6.75;;;;;;;20.50;51.91;102139.41;5034948;28;20099;-61
2021/10/07 02:03:49;;;;;;;19.52;6.82;;;;;;;20.42;51.95;102120.31;5017554;28;20455;-61
2021/10/07 02:06:14;;;;;;;14.07;6.28;;;;;;;20.53;51.64;102139.94;5035464;28;20027;-61
2021/10/07 02:08:40;;;;;;;25.25;7.93;;;;;;;20.50;51.68;102139.41;5001265;28;20032;-61
2021/10/07 02:11:05;;;;;;;16.33;6.50;;;;;;;20.53;51.88;102144.53;5035860;28;20021;-61
2021/10/07 02:13:31;;;;;;;10.60;5.57;;;;;;;20.54;51.48;102149.84;5035591;28;20051;-61
2021/10/07 02:15:58;;;;;;;21.30;8.40;;;;;;;20.54;52.24;102143.53;5035406;28;20025;-61
2021/10/07 02:18:23;;;;;;;21.92;6.88;;;;;;;20.57;52.08;102138.63;5035583;28;20394;-61
2021/10/07 02:20:49;;;;;;;16.85;6.53;;;;;;;20.58;52.41;102147.63;5001475;28;20025;-61
2021/10/07 02:23:14;;;;;;;20.55;7.43;;;;;;;20.60;51.99;102151.06;5035023;28;20025;-62
2021/10/07 02:25:39;;;;;;;16.48;6.85;;;;;;;20.59;52.53;102141.19;5018092;28;20029;-61
2021/10/07 02:28:05;;;;;;;14.65;6.53;;;;;;;20.56;52.46;102144.22;5034520;28;20018;-61
2021/10/07 02:30:30;;;;;;;10.48;5.85;;;;;;;20.60;51.67;102156.50;5017016;28;20044;-61
2021/10/07 02:32:55;;;;;;;11.98;5.85;;;;;;;20.60;51.92;102148.34;5034848;28;20040;-61
2021/10/07 02:35:21;;;;;;;15.30;6.18;;;;;;;20.60;51.89;102151.06;5038552;28;20017;-61
2021/10/07 02:37:47;;;;;;;14.48;6.40;;;;;;;20.60;52.36;102151.06;5039742;28;20450;-61
2021/10/07 02:40:13;;;;;;;16.52;6.30;;;;;;;20.60;51.89;102156.50;5021963;28;20367;-61
2021/10/07 02:42:38;;;;;;;11.48;6.05;;;;;;;20.58;52.54;102142.19;5039474;28;20155;-61
2021/10/07 02:45:09;;;;;;;13.25;5.70;;;;;;;20.58;51.69;102148.47;5021490;28;20470;-61
2021/10/07 02:47:35;;;;;;;13.68;6.13;;;;;;;20.58;52.12;102153.94;5049408;28;20049;-61
2021/10/07 02:50:00;;;;;;;13.98;6.30;;;;;;;20.55;52.32;102143.34;5059180;28;20135;-61
2021/10/07 02:52:26;;;;;;;10.90;6.03;;;;;;;20.56;51.94;102152.38;5058657;28;20029;-61
2021/10/07 02:54:51;;;;;;;10.77;5.65;;;;;;;20.56;52.22;102147.81;5058467;28;20035;-61
2021/10/07 02:57:17;;;;;;;10.30;6.30;;;;;;;20.56;51.77;102158.69;5058377;28;20061;-61
2021/10/07 02:59:43;;;;;;;9.63;5.40;;;;;;;20.57;51.89;102163.13;5058915;28;20025;-61
2021/10/07 03:02:09;;;;;;;12.90;6.50;;;;;;;20.55;52.34;102156.97;5040841;28;20394;-61
2021/10/07 03:04:35;;;;;;;13.10;6.10;;;;;;;20.57;52.26;102167.72;5058535;28;20040;-61
2021/10/07 03:07:00;;;;;;;12.25;6.03;;;;;;;20.57;52.35;102165.00;5058356;28;20433;-61
2021/10/07 03:09:25;;;;;;;12.10;6.40;;;;;;;20.57;52.46;102173.16;5040574;28;20029;-61
2021/10/07 03:11:50;;;;;;;13.05;6.40;;;;;;;20.57;51.54;102173.16;5058335;28;20025;-61
2021/10/07 03:14:16;;;;;;;20.30;7.05;;;;;;;20.57;51.71;102176.75;5058271;28;20074;-61
2021/10/07 03:16:41;;;;;;;10.93;5.38;;;;;;;20.57;51.61;102174.03;5040514;28;20108;-61
2021/10/07 03:19:07;;;;;;;11.05;5.78;;;;;;;20.56;52.60;102179.63;5040871;28;20516;-61
2021/10/07 03:21:32;;;;;;;13.90;6.15;;;;;;;20.55;51.87;102188.78;5040591;28;20386;-61
2021/10/07 03:23:57;;;;;;;10.68;4.78;;;;;;;20.53;52.16;102188.97;5059263;28;20084;-61
2021/10/07 03:26:23;;;;;;;12.73;5.05;;;;;;;20.55;51.95;102194.22;5058349;28;20025;-61
2021/10/07 03:28:49;;;;;;;15.43;6.18;;;;;;;20.54;51.39;102195.28;5058509;28;20517;-61
2021/10/07 03:31:14;;;;;;;10.77;5.70;;;;;;;20.55;52.53;102196.94;5040647;28;20025;-61
2021/10/07 03:33:39;;;;;;;9.43;5.35;;;;;;;20.56;52.34;102201.41;5062711;28;20067;-61
2021/10/07 03:36:05;;;;;;;12.60;6.20;;;;;;;20.55;52.28;102195.09;5041032;28;20032;-61
2021/10/07 03:38:30;;;;;;;11.32;6.10;;;;;;;20.53;51.80;102199.00;5057929;28;20037;-64
2021/10/07 03:40:57;;;;;;;13.27;5.90;;;;;;;20.51;52.38;102201.03;5057822;28;20025;-61
2021/10/07 03:43:23;;;;;;;14.05;5.38;;;;;;;20.54;52.33;102208.88;5057697;28;20021;-62
2021/10/07 03:45:48;;;;;;;9.52;5.57;;;;;;;20.53;51.73;102215.34;5056828;28;20032;-61
2021/10/07 03:48:13;;;;;;;11.27;5.97;;;;;;;20.51;52.11;102207.34;5057382;28;20442;-60
2021/10/07 03:50:39;;;;;;;15.60;6.30;;;;;;;20.50;52.27;102199.31;5057930;28;20021;-61
2021/10/07 03:53:04;;;;;;;12.55;5.70;;;;;;;20.46;52.02;102211.56;5057637;28;20048;-61
2021/10/07 03:55:29;;;;;;;11.60;5.75;;;;;;;20.43;51.81;102214.59;5057244;28;20025;-61
2021/10/07 03:57:55;;;;;;;13.15;6.25;;;;;;;20.40;52.13;102214.91;5057995;28;20378;-61
2021/10/07 04:00:20;;;;;;;12.80;5.47;;;;;;;20.38;52.09;102217.78;5040241;28;20036;-61
2021/10/07 04:02:46;;;;;;;13.50;5.20;;;;;;;20.36;51.53;102224.38;5057237;28;20513;-61
2021/10/07 04:05:11;;;;;;;9.70;5.18;;;;;;;20.33;52.29;102218.25;5058047;28;20082;-61
2021/10/07 04:07:36;;;;;;;11.32;5.07;;;;;;;20.31;52.07;102212.13;5057756;28;20017;-61
2021/10/07 04:10:02;;;;;;;14.50;5.63;;;;;;;20.28;51.80;102223.31;5057779;28;20025;-61
2021/10/07 04:12:27;;;;;;;12.40;6.22;;;;;;;20.27;52.23;102235.22;5058013;28;20061;-61
2021/10/07 04:14:53;;;;;;;10.43;5.47;;;;;;;20.24;52.11;102232.81;5057438;28;20021;-61
2021/10/07 04:17:18;;;;;;;10.23;5.32;;;;;;;20.23;52.41;102235.66;5040011;28;20059;-62
2021/10/07 04:19:43;;;;;;;13.73;5.57;;;;;;;20.22;52.53;102240.25;5039463;28;20471;-61
2021/10/07 04:22:09;;;;;;;12.95;6.38;;;;;;;20.19;51.71;102235.13;5057381;28;20364;-61
2021/10/07 04:24:34;;;;;;;9.07;5.32;;;;;;;20.17;51.97;102242.59;5040554;28;20413;-61
2021/10/07 04:26:59;;;;;;;14.90;5.78;;;;;;;20.16;52.43;102251.75;5057504;28;20478;-61
2021/10/07 04:29:25;;;;;;;14.45;6.30;;;;;;;20.15;51.77;102249.22;5058030;28;20017;-61
2021/10/07 04:31:50;;;;;;;9.88;6.30;;;;;;;20.14;51.96;102247.47;5057753;28;20113;-61
2021/10/07 04:34:16;;;;;;;11.93;4.78;;;;;;;20.14;51.88;102255.66;5057877;28;20483;-61
2021/10/07 04:36:42;;;;;;;10.25;4.95;;;;;;;20.14;52.27;102256.50;5057463;28;20025;-61
2021/10/07 04:39:07;;;;;;;10.70;5.43;;;;;;;20.15;51.92;102258.22;5057387;28;20025;-61
2021/10/07 04:41:33;;;;;;;10.70;5.35;;;;;;;20.15;52.58;102250.06;5057367;28;20021;-61
2021/10/07 04:43:58;;;;;;;9.70;5.20;;;;;;;20.11;52.49;102254.09;5057537;28;20478;-61
2021/10/07 04:46:23;;;;;;;8.32;4.78;;;;;;;20.16;52.75;102253.63;5057158;28;20040;-61
2021/10/07 04:48:49;;;;;;;11.32;5.57;;;;;;;20.17;52.47;102253.47;5056736;28;20056;-61
2021/10/07 04:51:15;;;;;;;14.85;6.50;;;;;;;20.18;52.30;102260.59;5056993;28;20025;-61
2021/10/07 04:53:40;;;;;;;8.85;4.97;;;;;;;20.17;52.22;102253.47;5056974;28;20060;-61
2021/10/07 04:56:06;;;;;;;8.95;5.40;;;;;;;20.19;52.39;102254.16;5056869;28;20100;-61
2021/10/07 04:58:32;;;;;;;14.13;6.85;;;;;;;20.20;52.25;102250.44;5057577;28;20501;-61
2021/10/07 05:00:57;;;;;;;10.10;5.45;;;;;;;20.20;51.94;102249.59;5056793;28;20025;-61
2021/10/07 05:03:23;;;;;;;13.55;6.10;;;;;;;20.21;52.13;102254.84;5056597;28;20032;-61
2021/10/07 05:05:48;;;;;;;15.10;6.20;;;;;;;20.16;52.34;102249.03;5038776;28;20091;-61
2021/10/07 05:08:13;;;;;;;11.48;5.82;;;;;;;20.23;52.63;102261.03;5056166;28;20413;-61
2021/10/07 05:10:39;;;;;;;11.23;6.47;;;;;;;20.25;52.12;102264.47;5055616;28;20056;-61
2021/10/07 05:13:05;;;;;;;8.27;5.43;;;;;;;20.27;53.06;102270.59;5055986;28;20078;-61
2021/10/07 05:15:31;;;;;;;9.68;6.13;;;;;;;20.26;52.52;102271.63;5056097;28;20033;-61
2021/10/07 05:17:56;;;;;;;10.95;6.22;;;;;;;20.25;52.38;102272.63;5056090;28;20075;-61
2021/10/07 05:20:22;;;;;;;10.48;5.75;;;;;;;20.29;52.29;102284.94;5055765;28;20056;-61
2021/10/07 05:22:47;;;;;;;12.48;5.45;;;;;;;20.30;52.97;102280.31;5055657;28;20021;-61
2021/10/07 05:25:12;;;;;;;15.95;6.15;;;;;;;20.32;52.20;102286.47;5050168;28;20030;-61
2021/10/07 05:27:38;;;;;;;9.07;5.63;;;;;;;20.30;52.58;102281.16;5056003;28;20501;-61
2021/10/07 05:30:06;;;;;;;11.88;5.90;;;;;;;20.34;52.80;102287.16;5055231;28;20025;-61
2021/10/07 05:32:31;;;;;;;14.07;6.40;;;;;;;20.32;52.16;102284.59;5049519;28;20035;-61
2021/10/07 05:34:57;;;;;;;14.70;6.25;;;;;;;20.35;52.79;102288.03;5017641;28;20387;-61
2021/10/07 05:37:22;;;;;;;14.73;6.80;;;;;;;20.32;52.23;102284.59;5017832;28;20454;-61
2021/10/07 05:39:48;;;;;;;17.27;6.53;;;;;;;20.38;52.97;102293.16;5035714;28;20021;-61
2021/10/07 05:42:13;;;;;;;16.27;6.47;;;;;;;20.39;52.02;102292.13;5054116;28;20029;-62
2021/10/07 05:44:39;;;;;;;17.27;6.80;;;;;;;20.36;52.39;102292.44;5055946;28;20040;-61
2021/10/07 05:47:04;;;;;;;19.58;7.18;;;;;;;20.42;52.37;102297.25;5055291;28;20045;-61
2021/10/07 05:49:30;;;;;;;17.63;7.93;;;;;;;20.45;52.91;102299.66;5037954;28;20512;-62
2021/10/07 05:51:55;;;;;;;14.05;6.88;;;;;;;20.46;52.88;102306.84;5037983;28;20033;-61
2021/10/07 05:54:21;;;;;;;11.85;6.57;;;;;;;20.50;52.53;102308.22;5037946;28;20080;-62
2021/10/07 05:56:47;;;;;;;17.45;8.80;;;;;;;20.51;52.73;102312.66;5055065;28;20024;-61
2021/10/07 05:59:12;;;;;;;18.88;6.65;;;;;;;20.54;52.24;102315.06;5055248;28;20027;-61
2021/10/07 06:01:38;;;;;;;15.65;5.95;;;;;;;20.54;52.86;102324.09;5037652;28;20024;-61
2021/10/07 06:04:03;;;;;;;17.83;7.55;;;;;;;20.54;52.46;102320.50;5055433;28;20017;-61
2021/10/07 06:06:29;;;;;;;16.40;6.45;;;;;;;20.55;52.58;102322.19;5055798;28;20048;-61
2021/10/07 06:08:54;;;;;;;11.10;5.45;;;;;;;20.58;53.19;102330.06;5054403;28;20027;-62
2021/10/07 06:11:20;;;;;;;15.00;6.82;;;;;;;20.64;51.94;102337.59;5054863;28;20021;-62
2021/10/07 06:13:45;;;;;;;14.30;7.18;;;;;;;20.66;52.26;102336.44;5054718;28;20068;-61
2021/10/07 06:16:11;;;;;;;17.30;7.70;;;;;;;20.67;52.76;102334.56;5054457;28;20029;-62
2021/10/07 06:18:36;;;;;;;15.68;6.10;;;;;;;20.69;53.07;102335.25;5054788;28;20021;-62
2021/10/07 06:21:02;;;;;;;19.63;7.13;;;;;;;20.69;52.98;102337.97;5054999;28;20025;-62
2021/10/07 06:23:27;;;;;;;19.25;7.63;;;;;;;20.70;52.16;102343.28;5054665;28;20086;-61
2021/10/07 06:25:53;;;;;;;21.08;8.00;;;;;;;20.69;52.96;102340.69;5054960;28;20017;-62
2021/10/07 06:28:18;;;;;;;18.48;8.63;;;;;;;20.70;52.43;102337.84;5054853;28;20095;-61
2021/10/07 06:30:44;;;;;;;25.95;8.75;;;;;;;20.70;52.66;102345.16;5054953;28;20036;-62
2021/10/07 06:33:09;;;;;;;21.63;7.95;;;;;;;20.72;52.38;102345.84;5036948;28;20024;-62
2021/10/07 06:35:34;;;;;;;24.00;8.95;;;;;;;20.73;53.00;102336.66;5054089;28;20028;-62
2021/10/07 06:38:00;;;;;;;17.10;7.93;;;;;;;20.73;52.90;102342.13;5054585;28;20044;-62
2021/10/07 06:40:25;;;;;;;18.90;7.78;;;;;;;20.74;52.74;102349.28;5054039;28;20028;-61
2021/10/07 06:42:51;;;;;;;17.85;7.70;;;;;;;20.77;52.60;102351.69;5054325;28;20033;-61
2021/10/07 06:45:17;;;;;;;21.05;7.75;;;;;;;20.69;52.88;102351.59;5053903;28;20398;-61
2021/10/07 06:47:42;;;;;;;20.75;8.48;;;;;;;20.80;53.19;102370.41;5054274;28;20045;-62
2021/10/07 06:50:10;;;;;;;23.77;8.65;;;;;;;20.77;52.79;102366.13;5054072;28;20025;-62
2021/10/07 06:52:37;;;;;;;22.05;8.50;;;;;;;20.84;52.76;102371.81;5054469;28;20025;-61
2021/10/07 06:55:02;;;;;;;23.85;9.30;;;;;;;20.87;52.84;102374.22;5054052;28;20116;-61
2021/10/07 06:57:28;;;;;;;26.52;9.63;;;;;;;20.88;52.57;102387.69;5035818;28;20100;-62
2021/10/07 06:59:53;;;;;;;25.90;9.40;;;;;;;20.89;52.48;102385.81;5053981;28;20025;-62
2021/10/07 07:02:19;;;;;;;25.15;9.48;;;;;;;20.95;52.20;102393.34;5054217;28;20060;-62
2021/10/07 07:04:44;;;;;;;31.02;9.18;;;;;;;20.98;52.72;102390.31;5054194;28;20033;-62
2021/10/07 07:07:09;;;;;;;23.35;8.30;;;;;;;21.00;52.91;102388.28;5054034;28;20060;-62
2021/10/07 07:09:35;;;;;;;22.75;7.88;;;;;;;20.99;52.48;102389.31;5054124;28;20029;-62
2021/10/07 07:12:00;;;;;;;28.75;8.80;;;;;;;21.04;52.66;102394.28;5036430;28;20108;-62
2021/10/07 07:14:25;;;;;;;20.55;8.75;;;;;;;21.05;52.66;102399.56;5053880;28;20025;-62
2021/10/07 07:16:51;;;;;;;24.45;8.13;;;;;;;21.08;53.06;102401.16;5053642;28;20032;-62
2021/10/07 07:19:16;;;;;;;33.50;8.95;;;;;;;21.12;52.29;102408.00;5036120;28;20025;-62
2021/10/07 07:21:41;;;;;;;20.13;7.82;;;;;;;21.14;52.12;102406.81;5055605;28;20035;-62
2021/10/07 07:24:07;;;;;;;24.23;8.48;;;;;;;21.18;52.32;102407.38;5057852;28;20029;-62
2021/10/07 07:26:33;;;;;;;21.45;7.90;;;;;;;21.22;51.94;102409.59;5058009;28;20030;-62
2021/10/07 07:28:59;;;;;;;19.50;7.63;;;;;;;21.27;52.95;102407.25;5057699;28;20024;-62
2021/10/07 07:31:25;;;;;;;21.38;6.90;;;;;;;21.30;52.24;102411.53;5056379;28;20023;-61
2021/10/07 07:33:51;;;;;;;20.13;7.90;;;;;;;21.31;52.36;102410.50;5057356;28;20028;-62
2021/10/07 07:36:22;;;;;;;19.40;7.53;;;;;;;21.38;52.15;102417.06;5056781;28;20159;-62
2021/10/07 07:38:48;;;;;;;19.20;7.05;;;;;;;21.43;52.60;102418.28;5057227;28;20021;-62
2021/10/07 07:41:15;;;;;;;20.90;8.15;;;;;;;21.50;51.70;102423.09;5057086;28;20032;-62
2021/10/07 07:43:41;;;;;;;19.15;8.18;;;;;;;21.58;51.88;102425.88;5056834;28;20499;-62
2021/10/07 07:46:06;;;;;;;15.75;6.80;;;;;;;21.72;51.44;102422.53;5056614;28;20060;-62
2021/10/07 07:48:32;;;;;;;18.90;9.02;;;;;;;21.86;51.66;102424.66;5056348;28;20049;-63
2021/10/07 07:50:58;;;;;;;15.98;7.22;;;;;;;21.94;51.23;102424.72;5056641;28;20382;-63
2021/10/07 07:53:23;;;;;;;21.20;6.88;;;;;;;21.98;52.03;102428.81;5056269;28;20490;-62
2021/10/07 07:55:49;;;;;;;18.90;7.20;;;;;;;21.98;51.14;102420.63;5056038;28;20052;-62
2021/10/07 07:58:16;;;;;;;18.17;6.45;;;;;;;22.04;51.87;102428.16;5056287;28;20066;-63
2021/10/07 08:00:42;;;;;;;17.38;7.20;;;;;;;22.05;51.03;102424.41;5056302;28;20024;-62
2021/10/07 08:03:08;;;;;;;20.08;7.97;;;;;;;22.08;51.91;102434.16;5055889;28;20540;-62
2021/10/07 08:05:34;;;;;;;20.77;6.90;;;;;;;22.11;51.43;102429.19;5055966;28;20027;-63
2021/10/07 08:07:59;;;;;;;16.00;6.88;;;;;;;22.19;51.83;102431.13;5056144;28;20024;-62
2021/10/07 08:10:25;;;;;;;18.98;7.22;;;;;;;22.22;51.43;102422.59;5055647;28;20029;-62
2021/10/07 08:12:50;;;;;;;15.88;6.97;;;;;;;22.34;51.35;102427.56;5056381;28;20020;-62
2021/10/07 08:15:16;;;;;;;16.65;7.97;;;;;;;22.83;50.86;102431.28;5055787;28;20031;-62
2021/10/07 08:17:42;;;;;;;17.42;7.55;;;;;;;23.21;50.14;102440.66;5055607;28;20021;-63
2021/10/07 08:20:09;;;;;;;20.20;8.20;;;;;;;23.39;49.44;102444.09;5055732;28;20044;-63
2021/10/07 08:22:35;;;;;;;16.60;7.05;;;;;;;23.49;50.30;102438.41;5055627;28;20037;-62
2021/10/07 08:25:01;;;;;;;19.65;6.80;;;;;;;23.72;49.51;102440.25;5038286;28;20047;-63
2021/10/07 08:27:26;;;;;;;19.13;7.85;;;;;;;23.71;49.43;102438.53;5055348;28;20032;-63
2021/10/07 08:29:53;;;;;;;21.80;7.57;;;;;;;23.69;49.78;102446.06;5055248;28;20505;-63
2021/10/07 08:32:18;;;;;;;15.75;6.05;;;;;;;23.67;49.06;102447.28;5054771;28;20029;-62
2021/10/07 08:34:44;;;;;;;17.23;6.65;;;;;;;23.62;49.76;102439.56;5055407;28;20036;-62
2021/10/07 08:37:09;;;;;;;19.50;7.43;;;;;;;23.58;49.95;102445.59;5055575;28;20083;-62
2021/10/07 08:39:35;;;;;;;21.58;7.18;;;;;;;23.54;49.97;102453.28;5055373;28;20109;-63
2021/10/07 08:42:00;;;;;;;16.98;6.45;;;;;;;23.56;49.51;102451.22;5055441;28;20025;-63
2021/10/07 08:44:27;;;;;;;16.77;6.68;;;;;;;23.61;48.70;102445.22;5037687;28;20020;-63
2021/10/07 08:46:53;;;;;;;16.55;6.45;;;;;;;23.63;48.57;102452.25;5055082;28;20045;-63
2021/10/07 08:49:21;;;;;;;18.38;8.20;;;;;;;23.66;48.97;102456.50;5055271;28;20087;-62
2021/10/07 08:51:47;;;;;;;20.15;6.88;;;;;;;23.69;48.43;102457.00;5055165;28;20036;-63
2021/10/07 08:54:13;;;;;;;16.00;7.32;;;;;;;23.67;49.24;102459.06;5055088;28;20025;-62
2021/10/07 08:56:39;;;;;;;16.67;6.20;;;;;;;23.65;48.89;102457.53;5055220;28;20029;-63
2021/10/07 08:59:05;;;;;;;12.55;6.13;;;;;;;24.15;48.16;102457.19;5054935;28;20532;-63
2021/10/07 09:01:42;;;;;;;15.13;6.78;;;;;;;24.60;47.57;102440.84;5054891;28;20025;-63
2021/10/07 09:04:25;;;;;;;20.55;6.95;;;;;;;25.16;46.69;102457.91;5054933;28;20075;-63
2021/10/07 09:06:55;;;;;;;14.55;5.85;;;;;;;25.50;46.49;102441.84;5037071;28;20028;-63
2021/10/07 09:09:21;;;;;;;13.27;6.75;;;;;;;25.86;46.18;102448.31;5054898;28;20036;-63
2021/10/07 09:11:52;;;;;;;18.88;5.93;;;;;;;26.07;46.52;102446.69;5054511;28;20486;-63
2021/10/07 09:14:22;;;;;;;17.73;6.28;;;;;;;26.53;45.79;102448.13;5054476;28;20025;-63
2021/10/07 09:16:50;;;;;;;15.57;5.60;;;;;;;27.12;44.89;102444.09;5054531;28;20075;-63
2021/10/07 09:19:27;;;;;;;11.50;5.38;;;;;;;27.72;43.95;102446.25;5054663;28;20502;-63
2021/10/07 09:21:57;;;;;;;12.13;5.00;;;;;;;28.66;43.01;102438.25;5054620;28;20486;-61
2021/10/07 09:24:32;;;;;;;9.65;4.40;;;;;;;30.78;39.76;102441.22;5054409;28;20032;-61
2021/10/07 09:27:03;;;;;;;10.73;4.85;;;;;;;31.78;37.77;102443.78;5054648;28;20109;-61
2021/10/07 09:29:38;;;;;;;9.15;4.70;;;;;;;31.31;38.98;102436.97;5054302;28;20021;-61
2021/10/07 09:32:04;;;;;;;10.82;4.80;;;;;;;31.34;39.58;102444.84;5054358;28;20107;-61
2021/10/07 09:34:41;;;;;;;10.57;4.28;;;;;;;31.21;38.98;102442.19;5054434;28;20028;-61
2021/10/07 09:37:29;;;;;;;11.82;4.20;;;;;;;30.37;40.39;102448.06;5054221;28;20474;-61
2021/10/07 09:39:58;;;;;;;15.43;4.78;;;;;;;29.59;41.11;102451.88;5054166;28;20021;-61
2021/10/07 09:42:29;;;;;;;12.98;5.43;;;;;;;28.97;41.65;102451.44;5054141;28;20055;-62
2021/10/07 09:45:01;;;;;;;12.10;5.25;;;;;;;28.46;41.53;102460.22;5053325;28;20429;-61
2021/10/07 09:47:32;;;;;;;15.10;5.07;;;;;;;28.96;40.43;102460.78;5053850;28;20048;-62
2021/10/07 09:50:11;;;;;;;10.70;4.43;;;;;;;29.72;39.78;102457.38;5054322;28;20108;-61
2021/10/07 09:52:38;;;;;;;8.85;4.80;;;;;;;30.33;38.95;102454.22;5054034;28;20076;-60
2021/10/07 09:55:24;;;;;;;11.75;5.03;;;;;;;30.93;37.80;102461.16;5053953;28;20488;-60
2021/10/07 09:57:58;;;;;;;7.70;4.10;;;;;;;31.29;37.66;102455.75;5054194;28;20025;-60
2021/10/07 10:00:27;;;;;;;9.10;3.97;;;;;;;31.62;37.50;102461.00;5036211;28;20028;-61
2021/10/07 10:02:55;;;;;;;12.95;4.82;;;;;;;30.72;38.46;102458.72;5053776;28;20024;-61
2021/10/07 10:05:20;;;;;;;12.88;4.55;;;;;;;29.96;39.06;102464.13;5053794;28;20060;-60
2021/10/07 10:07:46;;;;;;;10.98;4.10;;;;;;;29.31;40.24;102454.88;5053910;28;20025;-61
2021/10/07 10:10:12;;;;;;;7.68;3.60;;;;;;;28.82;40.28;102459.91;5054120;28;20029;-60
2021/10/07 10:12:39;;;;;;;11.18;3.92;;;;;;;28.46;40.74;102464.88;5053790;28;20024;-61
2021/10/07 10:15:05;;;;;;;7.78;3.78;;;;;;;29.09;38.83;102458.88;5054050;28;20028;-61
2021/10/07 10:17:33;;;;;;;10.55;4.13;;;;;;;29.43;38.46;102457.84;5035901;28;20035;-61
2021/10/07 10:19:58;;;;;;;12.68;4.57;;;;;;;29.59;37.88;102451.88;5052561;28;20056;-61
2021/10/07 10:22:25;;;;;;;9.70;4.53;;;;;;;30.45;37.14;102461.66;5035730;28;20021;-60
2021/10/07 10:24:51;;;;;;;7.50;3.80;;;;;;;30.74;37.48;102462.13;5036249;28;20017;-61
2021/10/07 10:27:16;;;;;;;10.95;3.95;;;;;;;29.99;38.13;102463.72;5019411;28;20070;-62
2021/10/07 10:29:42;;;;;;;7.78;3.17;;;;;;;29.46;38.92;102465.69;5035978;28;20118;-61
2021/10/07 10:32:12;;;;;;;11.32;4.15;;;;;;;28.98;38.67;102461.44;5054091;28;20386;-61
2021/10/07 10:34:47;;;;;;;9.75;3.70;;;;;;;28.55;38.93;102464.50;5035832;28;20112;-61
2021/10/07 10:37:15;;;;;;;7.25;4.10;;;;;;;28.20;40.53;102463.72;5053542;28;20021;-61
2021/10/07 10:39:45;;;;;;;7.10;3.92;;;;;;;27.93;40.39;102475.63;5053548;28;20043;-61
2021/10/07 10:42:16;;;;;;;19.67;4.18;;;;;;;27.79;40.62;102473.84;5053861;28;20025;-62
2021/10/07 10:44:52;;;;;;;10.70;3.92;;;;;;;27.65;39.62;102478.44;5035575;28;20040;-62
2021/10/07 10:47:29;;;;;;;8.55;3.72;;;;;;;27.77;40.17;102469.59;5053070;28;20044;-63
2021/10/07 10:49:55;;;;;;;10.05;4.05;;;;;;;27.50;40.68;102482.34;5036096;28;20041;-61
2021/10/07 10:52:20;;;;;;;7.55;3.40;;;;;;;27.22;40.04;102481.44;5053425;28;20032;-61
2021/10/07 10:54:50;;;;;;;20.33;4.15;;;;;;;26.94;40.19;102482.22;5054175;28;20390;-61
2021/10/07 10:57:49;;;;;;;10.63;3.67;;;;;;;26.71;41.04;102489.78;5057512;28;20471;-62
2021/10/07 11:00:37;;;;;;;6.10;3.33;;;;;;;26.48;41.10;102494.59;5056200;28;20025;-61
2021/10/07 11:03:08;;;;;;;8.70;3.33;;;;;;;26.23;40.91;102490.47;5056232;28;20052;-62
2021/10/07 11:05:44;;;;;;;8.50;4.07;;;;;;;26.11;41.10;102495.53;5057017;28;20071;-61
2021/10/07 11:08:15;;;;;;;10.50;3.75;;;;;;;26.00;41.58;102496.88;5057137;28;20025;-61
2021/10/07 11:10:49;;;;;;;7.38;3.58;;;;;;;25.95;41.70;102488.38;5056583;28;20032;-61
2021/10/07 11:13:19;;;;;;;7.03;3.47;;;;;;;25.93;41.17;102492.34;5056815;28;20116;-61
2021/10/07 11:15:52;;;;;;;10.00;3.42;;;;;;;25.87;41.35;102495.84;5039074;28;20021;-61
2021/10/07 11:18:17;;;;;;;;;;;;;;;25.79;41.68;102501.44;5056985;28;20547;-61
2021/10/07 11:20:43;;;;;;;8.70;4.07;;;;;;;25.67;41.67;102490.06;5056676;28;19913;-61
2021/10/07 11:23:12;;;;;;;9.23;3.03;;;;;;;25.55;42.07;102499.78;5056830;28;20029;-62
2021/10/07 11:25:40;;;;;;;6.72;3.90;;;;;;;25.50;41.95;102494.00;5056802;28;20025;-61
2021/10/07 11:28:06;;;;;;;11.05;4.07;;;;;;;26.00;41.36;102502.38;5056814;28;20107;-61